sensor_id;sensor_type;location;lat;lon;timestamp;P1;durP1;ratioP1;P2;durP2;ratioP2
38358;SDS011;42072;48.044;14.416;2023-06-22T00:00:22;8.30;;;4.63;;
38358;SDS011;42072;48.044;14.416;2023-06-22T00:02:49;9.32;;;5.30;;
38358;SDS011;42072;48.044;14.416;2023-06-22T00:05:16;12.65;;;5.47;;
38358;SDS011;42072;48.044;14.416;2023-06-22T00:07:43;9.70;;;5.00;;
38358;SDS011;42072;48.044;14.416;2023-06-22T00:10:10;11.60;;;5.63;;
38358;SDS011;42072;48.044;14.416;2023-06-22T00:12:37;9.38;;;4.95;;
38358;SDS011;42072;48.044;14.416;2023-06-22T00:15:04;9.48;;;4.60;;
38358;SDS011;42072;48.044;14.416;2023-06-22T00:17:32;10.45;;;5.00;;
38358;SDS011;42072;48.044;14.416;2023-06-22T00:19:59;10.77;;;4.93;;
38358;SDS011;42072;48.044;14.416;2023-06-22T00:22:26;10.05;;;4.72;;
38358;SDS011;42072;48.044;14.416;2023-06-22T00:24:56;11.35;;;4.75;;
38358;SDS011;42072;48.044;14.416;2023-06-22T00:27:24;9.63;;;5.25;;
38358;SDS011;42072;48.044;14.416;2023-06-22T00:29:51;15.15;;;5.28;;
38358;SDS011;42072;48.044;14.416;2023-06-22T00:32:18;11.00;;;4.90;;
38358;SDS011;42072;48.044;14.416;2023-06-22T00:34:45;9.40;;;4.57;;
38358;SDS011;42072;48.044;14.416;2023-06-22T00:37:12;10.80;;;4.97;;
38358;SDS011;42072;48.044;14.416;2023-06-22T00:39:39;8.85;;;4.72;;
38358;SDS011;42072;48.044;14.416;2023-06-22T00:42:08;10.55;;;4.38;;
38358;SDS011;42072;48.044;14.416;2023-06-22T00:44:35;10.98;;;5.28;;
38358;SDS011;42072;48.044;14.416;2023-06-22T00:47:03;11.10;;;4.40;;
38358;SDS011;42072;48.044;14.416;2023-06-22T00:49:30;10.25;;;5.10;;
38358;SDS011;42072;48.044;14.416;2023-06-22T00:51:58;14.80;;;4.78;;
38358;SDS011;42072;48.044;14.416;2023-06-22T00:54:25;10.73;;;4.85;;
38358;SDS011;42072;48.044;14.416;2023-06-22T00:56:53;13.68;;;5.40;;
38358;SDS011;42072;48.044;14.416;2023-06-22T00:59:23;11.70;;;5.15;;
38358;SDS011;42072;48.044;14.416;2023-06-22T01:01:50;11.55;;;5.43;;
38358;SDS011;42072;48.044;14.416;2023-06-22T01:04:18;10.98;;;4.85;;
38358;SDS011;42072;48.044;14.416;2023-06-22T01:06:47;11.40;;;5.18;;
38358;SDS011;42072;48.044;14.416;2023-06-22T01:09:32;11.05;;;4.22;;
38358;SDS011;42072;48.044;14.416;2023-06-22T01:12:06;9.40;;;4.85;;
38358;SDS011;42072;48.044;14.416;2023-06-22T01:15:00;10.63;;;4.32;;
38358;SDS011;42072;48.044;14.416;2023-06-22T01:17:36;8.48;;;4.70;;
38358;SDS011;42072;48.044;14.416;2023-06-22T01:20:07;12.82;;;4.97;;
38358;SDS011;42072;48.044;14.416;2023-06-22T01:22:43;9.98;;;4.38;;
38358;SDS011;42072;48.044;14.416;2023-06-22T01:28:46;11.00;;;4.75;;
38358;SDS011;42072;48.044;14.416;2023-06-22T01:31:16;12.52;;;4.60;;
38358;SDS011;42072;48.044;14.416;2023-06-22T01:33:49;13.80;;;5.00;;
38358;SDS011;42072;48.044;14.416;2023-06-22T01:38:49;12.90;;;5.05;;
38358;SDS011;42072;48.044;14.416;2023-06-22T01:41:17;10.60;;;4.15;;
38358;SDS011;42072;48.044;14.416;2023-06-22T01:43:45;10.68;;;4.25;;
38358;SDS011;42072;48.044;14.416;2023-06-22T01:46:13;11.45;;;5.20;;
38358;SDS011;42072;48.044;14.416;2023-06-22T01:48:41;10.40;;;4.82;;
38358;SDS011;42072;48.044;14.416;2023-06-22T01:51:08;9.73;;;4.47;;
38358;SDS011;42072;48.044;14.416;2023-06-22T01:53:35;14.45;;;5.57;;
38358;SDS011;42072;48.044;14.416;2023-06-22T01:56:02;9.13;;;4.55;;
38358;SDS011;42072;48.044;14.416;2023-06-22T01:58:30;12.75;;;5.00;;
38358;SDS011;42072;48.044;14.416;2023-06-22T02:01:11;11.50;;;5.15;;
38358;SDS011;42072;48.044;14.416;2023-06-22T02:06:44;10.90;;;4.93;;
38358;SDS011;42072;48.044;14.416;2023-06-22T02:09:15;12.30;;;4.85;;
38358;SDS011;42072;48.044;14.416;2023-06-22T02:11:46;15.30;;;5.13;;
38358;SDS011;42072;48.044;14.416;2023-06-22T02:14:15;13.55;;;5.32;;
38358;SDS011;42072;48.044;14.416;2023-06-22T02:16:45;13.82;;;5.38;;
38358;SDS011;42072;48.044;14.416;2023-06-22T02:19:12;14.52;;;5.80;;
38358;SDS011;42072;48.044;14.416;2023-06-22T02:21:45;11.75;;;4.97;;
38358;SDS011;42072;48.044;14.416;2023-06-22T02:24:12;9.35;;;4.93;;
38358;SDS011;42072;48.044;14.416;2023-06-22T02:26:40;9.65;;;5.20;;
38358;SDS011;42072;48.044;14.416;2023-06-22T02:29:08;11.25;;;5.15;;
38358;SDS011;42072;48.044;14.416;2023-06-22T02:31:35;15.77;;;5.93;;
38358;SDS011;42072;48.044;14.416;2023-06-22T02:34:03;9.50;;;4.78;;
38358;SDS011;42072;48.044;14.416;2023-06-22T02:36:30;12.98;;;5.40;;
38358;SDS011;42072;48.044;14.416;2023-06-22T02:38:57;9.23;;;4.55;;
38358;SDS011;42072;48.044;14.416;2023-06-22T02:41:28;12.85;;;5.35;;
38358;SDS011;42072;48.044;14.416;2023-06-22T02:43:55;10.10;;;4.95;;
38358;SDS011;42072;48.044;14.416;2023-06-22T02:46:22;11.98;;;5.38;;
38358;SDS011;42072;48.044;14.416;2023-06-22T02:48:49;10.40;;;4.97;;
38358;SDS011;42072;48.044;14.416;2023-06-22T02:51:16;14.18;;;5.47;;
38358;SDS011;42072;48.044;14.416;2023-06-22T02:53:43;12.77;;;5.32;;
38358;SDS011;42072;48.044;14.416;2023-06-22T02:56:12;9.68;;;5.20;;
38358;SDS011;42072;48.044;14.416;2023-06-22T02:58:39;11.13;;;5.25;;
38358;SDS011;42072;48.044;14.416;2023-06-22T03:01:06;11.25;;;5.20;;
38358;SDS011;42072;48.044;14.416;2023-06-22T03:03:33;12.57;;;5.18;;
38358;SDS011;42072;48.044;14.416;2023-06-22T03:06:01;10.45;;;5.72;;
38358;SDS011;42072;48.044;14.416;2023-06-22T03:08:28;11.43;;;6.07;;
38358;SDS011;42072;48.044;14.416;2023-06-22T03:10:55;12.07;;;5.72;;
38358;SDS011;42072;48.044;14.416;2023-06-22T03:13:23;13.68;;;6.00;;
38358;SDS011;42072;48.044;14.416;2023-06-22T03:15:50;12.30;;;5.85;;
38358;SDS011;42072;48.044;14.416;2023-06-22T03:18:17;11.45;;;5.32;;
38358;SDS011;42072;48.044;14.416;2023-06-22T03:20:45;13.68;;;5.90;;
38358;SDS011;42072;48.044;14.416;2023-06-22T03:23:12;12.35;;;5.85;;
38358;SDS011;42072;48.044;14.416;2023-06-22T03:25:40;13.50;;;6.18;;
38358;SDS011;42072;48.044;14.416;2023-06-22T03:28:11;11.05;;;5.50;;
38358;SDS011;42072;48.044;14.416;2023-06-22T03:30:38;10.45;;;5.97;;
38358;SDS011;42072;48.044;14.416;2023-06-22T03:33:05;15.50;;;6.18;;
38358;SDS011;42072;48.044;14.416;2023-06-22T03:35:32;12.25;;;5.57;;
38358;SDS011;42072;48.044;14.416;2023-06-22T03:37:59;9.18;;;6.05;;
38358;SDS011;42072;48.044;14.416;2023-06-22T03:40:27;11.90;;;5.68;;
38358;SDS011;42072;48.044;14.416;2023-06-22T03:42:55;15.18;;;6.32;;
38358;SDS011;42072;48.044;14.416;2023-06-22T03:45:22;10.45;;;5.85;;
38358;SDS011;42072;48.044;14.416;2023-06-22T03:47:49;13.15;;;6.03;;
38358;SDS011;42072;48.044;14.416;2023-06-22T03:50:17;12.23;;;5.72;;
38358;SDS011;42072;48.044;14.416;2023-06-22T03:52:46;13.80;;;5.85;;
38358;SDS011;42072;48.044;14.416;2023-06-22T03:55:13;13.90;;;6.25;;
38358;SDS011;42072;48.044;14.416;2023-06-22T03:57:41;13.40;;;6.10;;
38358;SDS011;42072;48.044;14.416;2023-06-22T04:00:08;9.32;;;5.57;;
38358;SDS011;42072;48.044;14.416;2023-06-22T04:02:36;13.20;;;6.07;;
38358;SDS011;42072;48.044;14.416;2023-06-22T04:05:04;11.60;;;5.55;;
38358;SDS011;42072;48.044;14.416;2023-06-22T04:07:31;12.43;;;5.78;;
38358;SDS011;42072;48.044;14.416;2023-06-22T04:09:58;14.38;;;5.43;;
38358;SDS011;42072;48.044;14.416;2023-06-22T04:12:26;14.60;;;5.68;;
38358;SDS011;42072;48.044;14.416;2023-06-22T04:14:53;12.88;;;5.53;;
38358;SDS011;42072;48.044;14.416;2023-06-22T04:17:20;10.85;;;5.80;;
38358;SDS011;42072;48.044;14.416;2023-06-22T04:19:47;13.80;;;5.57;;
38358;SDS011;42072;48.044;14.416;2023-06-22T04:22:14;14.82;;;5.57;;
38358;SDS011;42072;48.044;14.416;2023-06-22T04:24:41;13.75;;;5.72;;
38358;SDS011;42072;48.044;14.416;2023-06-22T04:27:08;11.82;;;5.25;;
38358;SDS011;42072;48.044;14.416;2023-06-22T04:29:36;12.55;;;5.22;;
38358;SDS011;42072;48.044;14.416;2023-06-22T04:32:04;13.38;;;5.93;;
38358;SDS011;42072;48.044;14.416;2023-06-22T04:34:32;16.08;;;6.07;;
38358;SDS011;42072;48.044;14.416;2023-06-22T04:36:59;13.30;;;6.47;;
38358;SDS011;42072;48.044;14.416;2023-06-22T04:39:27;13.95;;;5.70;;
38358;SDS011;42072;48.044;14.416;2023-06-22T04:41:55;14.18;;;6.25;;
38358;SDS011;42072;48.044;14.416;2023-06-22T04:44:26;15.00;;;6.22;;
38358;SDS011;42072;48.044;14.416;2023-06-22T04:46:55;13.27;;;5.97;;
38358;SDS011;42072;48.044;14.416;2023-06-22T04:49:29;13.82;;;5.80;;
38358;SDS011;42072;48.044;14.416;2023-06-22T04:52:11;13.20;;;5.88;;
38358;SDS011;42072;48.044;14.416;2023-06-22T04:54:40;11.25;;;5.88;;
38358;SDS011;42072;48.044;14.416;2023-06-22T04:57:14;12.45;;;5.80;;
38358;SDS011;42072;48.044;14.416;2023-06-22T04:59:41;13.25;;;5.80;;
38358;SDS011;42072;48.044;14.416;2023-06-22T05:02:10;14.55;;;5.82;;
38358;SDS011;42072;48.044;14.416;2023-06-22T05:04:37;16.17;;;6.07;;
38358;SDS011;42072;48.044;14.416;2023-06-22T05:07:06;13.45;;;5.50;;
38358;SDS011;42072;48.044;14.416;2023-06-22T05:09:33;16.38;;;6.25;;
38358;SDS011;42072;48.044;14.416;2023-06-22T05:12:02;15.55;;;6.57;;
38358;SDS011;42072;48.044;14.416;2023-06-22T05:14:34;13.93;;;6.18;;
38358;SDS011;42072;48.044;14.416;2023-06-22T05:17:01;12.93;;;5.63;;
38358;SDS011;42072;48.044;14.416;2023-06-22T05:19:30;13.18;;;6.90;;
38358;SDS011;42072;48.044;14.416;2023-06-22T05:22:01;23.58;;;6.95;;
38358;SDS011;42072;48.044;14.416;2023-06-22T05:24:28;14.45;;;6.63;;
38358;SDS011;42072;48.044;14.416;2023-06-22T05:26:55;16.95;;;7.68;;
38358;SDS011;42072;48.044;14.416;2023-06-22T05:29:22;14.52;;;7.93;;
38358;SDS011;42072;48.044;14.416;2023-06-22T05:31:49;16.35;;;7.65;;
38358;SDS011;42072;48.044;14.416;2023-06-22T05:34:16;19.77;;;7.57;;
38358;SDS011;42072;48.044;14.416;2023-06-22T05:36:44;11.75;;;6.72;;
38358;SDS011;42072;48.044;14.416;2023-06-22T05:39:11;14.15;;;6.95;;
38358;SDS011;42072;48.044;14.416;2023-06-22T05:41:40;15.45;;;6.80;;
38358;SDS011;42072;48.044;14.416;2023-06-22T05:44:08;12.70;;;6.43;;
38358;SDS011;42072;48.044;14.416;2023-06-22T05:46:35;25.38;;;9.00;;
38358;SDS011;42072;48.044;14.416;2023-06-22T05:49:02;14.93;;;6.90;;
38358;SDS011;42072;48.044;14.416;2023-06-22T05:51:29;15.45;;;7.45;;
38358;SDS011;42072;48.044;14.416;2023-06-22T05:53:56;15.82;;;6.80;;
38358;SDS011;42072;48.044;14.416;2023-06-22T05:56:23;13.50;;;7.60;;
38358;SDS011;42072;48.044;14.416;2023-06-22T05:58:50;14.43;;;6.90;;
38358;SDS011;42072;48.044;14.416;2023-06-22T06:01:17;14.77;;;7.03;;
38358;SDS011;42072;48.044;14.416;2023-06-22T06:03:45;14.45;;;6.57;;
38358;SDS011;42072;48.044;14.416;2023-06-22T06:06:12;15.93;;;7.82;;
38358;SDS011;42072;48.044;14.416;2023-06-22T06:08:39;14.60;;;6.70;;
38358;SDS011;42072;48.044;14.416;2023-06-22T06:11:07;11.52;;;5.97;;
38358;SDS011;42072;48.044;14.416;2023-06-22T06:13:34;14.25;;;5.90;;
38358;SDS011;42072;48.044;14.416;2023-06-22T06:16:01;12.63;;;6.53;;
38358;SDS011;42072;48.044;14.416;2023-06-22T06:18:29;14.43;;;6.00;;
38358;SDS011;42072;48.044;14.416;2023-06-22T06:20:56;12.25;;;5.90;;
38358;SDS011;42072;48.044;14.416;2023-06-22T06:23:23;15.73;;;6.65;;
38358;SDS011;42072;48.044;14.416;2023-06-22T06:25:50;14.00;;;6.75;;
38358;SDS011;42072;48.044;14.416;2023-06-22T06:28:17;15.63;;;6.82;;
38358;SDS011;42072;48.044;14.416;2023-06-22T06:30:44;11.73;;;6.82;;
38358;SDS011;42072;48.044;14.416;2023-06-22T06:33:13;13.57;;;6.43;;
38358;SDS011;42072;48.044;14.416;2023-06-22T06:35:40;12.98;;;6.65;;
38358;SDS011;42072;48.044;14.416;2023-06-22T06:38:08;16.58;;;6.55;;
38358;SDS011;42072;48.044;14.416;2023-06-22T06:40:35;14.55;;;6.55;;
38358;SDS011;42072;48.044;14.416;2023-06-22T06:43:02;17.63;;;7.22;;
38358;SDS011;42072;48.044;14.416;2023-06-22T06:45:29;14.40;;;7.80;;
38358;SDS011;42072;48.044;14.416;2023-06-22T06:47:59;13.60;;;6.90;;
38358;SDS011;42072;48.044;14.416;2023-06-22T06:50:27;19.90;;;7.50;;
38358;SDS011;42072;48.044;14.416;2023-06-22T06:52:55;16.90;;;7.10;;
38358;SDS011;42072;48.044;14.416;2023-06-22T06:55:25;15.13;;;6.78;;
38358;SDS011;42072;48.044;14.416;2023-06-22T06:57:52;18.50;;;7.50;;
38358;SDS011;42072;48.044;14.416;2023-06-22T07:00:20;17.00;;;7.10;;
38358;SDS011;42072;48.044;14.416;2023-06-22T07:02:47;15.27;;;6.90;;
38358;SDS011;42072;48.044;14.416;2023-06-22T07:05:15;13.60;;;7.00;;
38358;SDS011;42072;48.044;14.416;2023-06-22T07:07:42;15.13;;;6.43;;
38358;SDS011;42072;48.044;14.416;2023-06-22T07:10:09;10.30;;;6.30;;
38358;SDS011;42072;48.044;14.416;2023-06-22T07:12:37;13.15;;;5.97;;
38358;SDS011;42072;48.044;14.416;2023-06-22T07:15:04;17.10;;;6.82;;
38358;SDS011;42072;48.044;14.416;2023-06-22T07:17:36;15.20;;;6.70;;
38358;SDS011;42072;48.044;14.416;2023-06-22T07:20:06;17.00;;;6.32;;
38358;SDS011;42072;48.044;14.416;2023-06-22T07:22:39;15.38;;;6.78;;
38358;SDS011;42072;48.044;14.416;2023-06-22T07:25:07;10.35;;;5.22;;
38358;SDS011;42072;48.044;14.416;2023-06-22T07:30:24;11.52;;;6.25;;
38358;SDS011;42072;48.044;14.416;2023-06-22T07:32:51;13.30;;;6.45;;
38358;SDS011;42072;48.044;14.416;2023-06-22T07:35:18;11.80;;;6.03;;
38358;SDS011;42072;48.044;14.416;2023-06-22T07:37:46;18.75;;;6.82;;
38358;SDS011;42072;48.044;14.416;2023-06-22T07:40:13;13.30;;;6.30;;
38358;SDS011;42072;48.044;14.416;2023-06-22T07:42:40;12.07;;;5.85;;
38358;SDS011;42072;48.044;14.416;2023-06-22T07:45:08;14.77;;;6.75;;
38358;SDS011;42072;48.044;14.416;2023-06-22T07:47:35;11.02;;;6.75;;
38358;SDS011;42072;48.044;14.416;2023-06-22T07:50:03;11.98;;;6.13;;
38358;SDS011;42072;48.044;14.416;2023-06-22T07:52:31;11.88;;;6.50;;
38358;SDS011;42072;48.044;14.416;2023-06-22T07:54:58;14.05;;;6.25;;
38358;SDS011;42072;48.044;14.416;2023-06-22T07:57:26;10.48;;;6.03;;
38358;SDS011;42072;48.044;14.416;2023-06-22T08:00:01;16.10;;;6.07;;
38358;SDS011;42072;48.044;14.416;2023-06-22T08:02:41;10.88;;;5.95;;
38358;SDS011;42072;48.044;14.416;2023-06-22T08:05:09;12.00;;;6.32;;
38358;SDS011;42072;48.044;14.416;2023-06-22T08:07:40;17.30;;;6.70;;
38358;SDS011;42072;48.044;14.416;2023-06-22T08:10:11;15.70;;;6.72;;
38358;SDS011;42072;48.044;14.416;2023-06-22T08:12:39;12.95;;;6.18;;
38358;SDS011;42072;48.044;14.416;2023-06-22T08:15:07;11.80;;;6.60;;
38358;SDS011;42072;48.044;14.416;2023-06-22T08:17:36;12.02;;;6.40;;
38358;SDS011;42072;48.044;14.416;2023-06-22T08:20:05;15.52;;;6.50;;
38358;SDS011;42072;48.044;14.416;2023-06-22T08:22:36;12.35;;;6.38;;
38358;SDS011;42072;48.044;14.416;2023-06-22T08:25:03;14.32;;;6.45;;
38358;SDS011;42072;48.044;14.416;2023-06-22T08:27:31;14.15;;;6.60;;
38358;SDS011;42072;48.044;14.416;2023-06-22T08:29:59;14.55;;;6.40;;
38358;SDS011;42072;48.044;14.416;2023-06-22T08:32:27;12.27;;;6.03;;
38358;SDS011;42072;48.044;14.416;2023-06-22T08:34:55;13.43;;;6.30;;
38358;SDS011;42072;48.044;14.416;2023-06-22T08:37:24;10.75;;;6.85;;
38358;SDS011;42072;48.044;14.416;2023-06-22T08:39:58;13.85;;;6.38;;
38358;SDS011;42072;48.044;14.416;2023-06-22T08:42:27;12.05;;;6.47;;
38358;SDS011;42072;48.044;14.416;2023-06-22T08:44:55;10.35;;;6.40;;
38358;SDS011;42072;48.044;14.416;2023-06-22T08:47:22;14.35;;;6.45;;
38358;SDS011;42072;48.044;14.416;2023-06-22T08:49:49;15.38;;;6.70;;
38358;SDS011;42072;48.044;14.416;2023-06-22T08:52:17;11.45;;;6.45;;
38358;SDS011;42072;48.044;14.416;2023-06-22T08:54:46;11.00;;;6.20;;
38358;SDS011;42072;48.044;14.416;2023-06-22T08:57:14;11.50;;;6.43;;
38358;SDS011;42072;48.044;14.416;2023-06-22T08:59:42;13.05;;;6.30;;
38358;SDS011;42072;48.044;14.416;2023-06-22T09:02:09;15.07;;;6.50;;
38358;SDS011;42072;48.044;14.416;2023-06-22T09:04:37;14.90;;;6.15;;
38358;SDS011;42072;48.044;14.416;2023-06-22T09:07:05;10.40;;;5.90;;
38358;SDS011;42072;48.044;14.416;2023-06-22T09:09:32;10.23;;;5.90;;
38358;SDS011;42072;48.044;14.416;2023-06-22T09:11:59;11.23;;;6.47;;
38358;SDS011;42072;48.044;14.416;2023-06-22T09:14:26;17.90;;;6.53;;
38358;SDS011;42072;48.044;14.416;2023-06-22T09:16:53;14.20;;;6.25;;
38358;SDS011;42072;48.044;14.416;2023-06-22T09:19:20;13.52;;;6.22;;
38358;SDS011;42072;48.044;14.416;2023-06-22T09:21:48;12.82;;;6.47;;
38358;SDS011;42072;48.044;14.416;2023-06-22T09:24:15;12.00;;;6.00;;
38358;SDS011;42072;48.044;14.416;2023-06-22T09:26:42;10.80;;;6.55;;
38358;SDS011;42072;48.044;14.416;2023-06-22T09:29:09;9.50;;;5.85;;
38358;SDS011;42072;48.044;14.416;2023-06-22T09:31:36;11.18;;;5.65;;
38358;SDS011;42072;48.044;14.416;2023-06-22T09:34:03;12.95;;;6.50;;
38358;SDS011;42072;48.044;14.416;2023-06-22T09:36:31;12.43;;;6.07;;
38358;SDS011;42072;48.044;14.416;2023-06-22T09:38:58;8.88;;;5.93;;
38358;SDS011;42072;48.044;14.416;2023-06-22T09:41:26;18.05;;;6.00;;
38358;SDS011;42072;48.044;14.416;2023-06-22T09:43:54;11.45;;;6.00;;
38358;SDS011;42072;48.044;14.416;2023-06-22T09:46:22;16.20;;;6.65;;
38358;SDS011;42072;48.044;14.416;2023-06-22T09:48:52;13.68;;;6.90;;
38358;SDS011;42072;48.044;14.416;2023-06-22T09:51:19;15.48;;;6.60;;
38358;SDS011;42072;48.044;14.416;2023-06-22T09:53:48;14.70;;;5.97;;
38358;SDS011;42072;48.044;14.416;2023-06-22T09:56:15;12.05;;;6.47;;
38358;SDS011;42072;48.044;14.416;2023-06-22T09:58:43;11.45;;;6.60;;
38358;SDS011;42072;48.044;14.416;2023-06-22T10:01:13;14.98;;;6.68;;
38358;SDS011;42072;48.044;14.416;2023-06-22T10:03:43;12.93;;;5.97;;
38358;SDS011;42072;48.044;14.416;2023-06-22T10:06:11;17.02;;;5.40;;
38358;SDS011;42072;48.044;14.416;2023-06-22T10:08:38;11.77;;;6.30;;
38358;SDS011;42072;48.044;14.416;2023-06-22T10:11:07;18.27;;;6.45;;
38358;SDS011;42072;48.044;14.416;2023-06-22T10:13:34;14.15;;;6.32;;
38358;SDS011;42072;48.044;14.416;2023-06-22T10:16:01;11.10;;;6.22;;
38358;SDS011;42072;48.044;14.416;2023-06-22T10:18:28;11.73;;;5.82;;
38358;SDS011;42072;48.044;14.416;2023-06-22T10:20:57;15.07;;;6.32;;
38358;SDS011;42072;48.044;14.416;2023-06-22T10:23:24;14.95;;;6.22;;
38358;SDS011;42072;48.044;14.416;2023-06-22T10:25:51;12.05;;;6.38;;
38358;SDS011;42072;48.044;14.416;2023-06-22T10:28:18;13.27;;;6.78;;
38358;SDS011;42072;48.044;14.416;2023-06-22T10:30:46;13.38;;;6.05;;
38358;SDS011;42072;48.044;14.416;2023-06-22T10:33:13;17.02;;;6.15;;
38358;SDS011;42072;48.044;14.416;2023-06-22T10:35:40;11.30;;;6.70;;
38358;SDS011;42072;48.044;14.416;2023-06-22T10:38:07;12.15;;;5.97;;
38358;SDS011;42072;48.044;14.416;2023-06-22T10:40:34;13.57;;;6.32;;
38358;SDS011;42072;48.044;14.416;2023-06-22T10:43:02;14.75;;;5.97;;
38358;SDS011;42072;48.044;14.416;2023-06-22T10:45:29;10.93;;;6.03;;
38358;SDS011;42072;48.044;14.416;2023-06-22T10:47:56;12.05;;;6.72;;
38358;SDS011;42072;48.044;14.416;2023-06-22T10:50:24;12.98;;;6.40;;
38358;SDS011;42072;48.044;14.416;2023-06-22T10:52:52;14.05;;;6.68;;
38358;SDS011;42072;48.044;14.416;2023-06-22T10:55:22;10.93;;;5.97;;
38358;SDS011;42072;48.044;14.416;2023-06-22T10:57:49;9.90;;;5.97;;
38358;SDS011;42072;48.044;14.416;2023-06-22T11:00:16;10.65;;;6.05;;
38358;SDS011;42072;48.044;14.416;2023-06-22T11:02:44;10.10;;;5.68;;
38358;SDS011;42072;48.044;14.416;2023-06-22T11:05:11;16.02;;;6.78;;
38358;SDS011;42072;48.044;14.416;2023-06-22T11:07:42;16.13;;;6.65;;
38358;SDS011;42072;48.044;14.416;2023-06-22T11:10:12;9.98;;;6.10;;
38358;SDS011;42072;48.044;14.416;2023-06-22T11:12:39;10.95;;;5.80;;
38358;SDS011;42072;48.044;14.416;2023-06-22T11:15:07;10.05;;;5.82;;
38358;SDS011;42072;48.044;14.416;2023-06-22T11:17:35;12.95;;;6.38;;
38358;SDS011;42072;48.044;14.416;2023-06-22T11:20:02;9.88;;;5.70;;
38358;SDS011;42072;48.044;14.416;2023-06-22T11:22:39;20.90;;;6.65;;
38358;SDS011;42072;48.044;14.416;2023-06-22T11:25:07;13.85;;;6.82;;
38358;SDS011;42072;48.044;14.416;2023-06-22T11:27:35;14.30;;;6.32;;
38358;SDS011;42072;48.044;14.416;2023-06-22T11:30:02;13.00;;;5.97;;
38358;SDS011;42072;48.044;14.416;2023-06-22T11:32:30;12.52;;;6.20;;
38358;SDS011;42072;48.044;14.416;2023-06-22T11:34:57;14.88;;;6.28;;
38358;SDS011;42072;48.044;14.416;2023-06-22T11:37:25;12.20;;;5.95;;
38358;SDS011;42072;48.044;14.416;2023-06-22T11:39:52;10.82;;;6.03;;
38358;SDS011;42072;48.044;14.416;2023-06-22T11:42:32;12.90;;;6.20;;
38358;SDS011;42072;48.044;14.416;2023-06-22T11:44:59;13.27;;;6.95;;
38358;SDS011;42072;48.044;14.416;2023-06-22T11:47:26;14.07;;;6.53;;
38358;SDS011;42072;48.044;14.416;2023-06-22T11:49:53;13.30;;;6.45;;
38358;SDS011;42072;48.044;14.416;2023-06-22T11:52:21;8.32;;;6.03;;
38358;SDS011;42072;48.044;14.416;2023-06-22T11:54:48;13.45;;;6.00;;
38358;SDS011;42072;48.044;14.416;2023-06-22T11:57:15;11.82;;;6.38;;
38358;SDS011;42072;48.044;14.416;2023-06-22T11:59:42;13.27;;;6.32;;
38358;SDS011;42072;48.044;14.416;2023-06-22T12:02:10;16.95;;;6.68;;
38358;SDS011;42072;48.044;14.416;2023-06-22T12:04:37;15.07;;;6.68;;
38358;SDS011;42072;48.044;14.416;2023-06-22T12:07:04;9.82;;;5.60;;
38358;SDS011;42072;48.044;14.416;2023-06-22T12:09:31;16.00;;;6.80;;
38358;SDS011;42072;48.044;14.416;2023-06-22T12:11:58;10.95;;;6.50;;
38358;SDS011;42072;48.044;14.416;2023-06-22T12:14:25;10.38;;;5.90;;
38358;SDS011;42072;48.044;14.416;2023-06-22T12:16:55;12.55;;;6.43;;
38358;SDS011;42072;48.044;14.416;2023-06-22T12:19:23;16.02;;;7.28;;
38358;SDS011;42072;48.044;14.416;2023-06-22T12:21:50;12.82;;;6.57;;
38358;SDS011;42072;48.044;14.416;2023-06-22T12:24:17;12.50;;;6.40;;
38358;SDS011;42072;48.044;14.416;2023-06-22T12:26:44;14.70;;;6.72;;
38358;SDS011;42072;48.044;14.416;2023-06-22T12:29:12;12.02;;;6.70;;
38358;SDS011;42072;48.044;14.416;2023-06-22T12:31:39;12.90;;;5.47;;
38358;SDS011;42072;48.044;14.416;2023-06-22T12:34:06;13.00;;;6.65;;
38358;SDS011;42072;48.044;14.416;2023-06-22T12:36:33;12.68;;;6.70;;
38358;SDS011;42072;48.044;14.416;2023-06-22T12:39:01;13.77;;;6.32;;
38358;SDS011;42072;48.044;14.416;2023-06-22T12:41:28;13.90;;;5.90;;
38358;SDS011;42072;48.044;14.416;2023-06-22T12:43:55;12.52;;;6.50;;
38358;SDS011;42072;48.044;14.416;2023-06-22T12:46:22;14.40;;;6.03;;
38358;SDS011;42072;48.044;14.416;2023-06-22T12:48:49;16.55;;;6.90;;
38358;SDS011;42072;48.044;14.416;2023-06-22T12:51:25;11.98;;;6.43;;
38358;SDS011;42072;48.044;14.416;2023-06-22T12:53:52;10.50;;;6.32;;
38358;SDS011;42072;48.044;14.416;2023-06-22T12:56:19;12.48;;;6.22;;
38358;SDS011;42072;48.044;14.416;2023-06-22T12:58:46;13.23;;;6.43;;
38358;SDS011;42072;48.044;14.416;2023-06-22T13:01:14;11.48;;;6.57;;
38358;SDS011;42072;48.044;14.416;2023-06-22T13:03:41;11.77;;;6.32;;
38358;SDS011;42072;48.044;14.416;2023-06-22T13:06:09;11.15;;;6.72;;
38358;SDS011;42072;48.044;14.416;2023-06-22T13:08:36;13.18;;;6.75;;
38358;SDS011;42072;48.044;14.416;2023-06-22T13:11:23;17.45;;;6.97;;
38358;SDS011;42072;48.044;14.416;2023-06-22T13:13:50;17.48;;;6.97;;
38358;SDS011;42072;48.044;14.416;2023-06-22T13:16:17;16.65;;;7.30;;
38358;SDS011;42072;48.044;14.416;2023-06-22T13:18:45;16.63;;;6.97;;
38358;SDS011;42072;48.044;14.416;2023-06-22T13:21:12;13.25;;;6.63;;
38358;SDS011;42072;48.044;14.416;2023-06-22T13:23:40;13.07;;;7.68;;
38358;SDS011;42072;48.044;14.416;2023-06-22T13:26:07;11.27;;;7.07;;
38358;SDS011;42072;48.044;14.416;2023-06-22T13:28:35;15.68;;;7.13;;
38358;SDS011;42072;48.044;14.416;2023-06-22T13:31:02;11.48;;;7.30;;
38358;SDS011;42072;48.044;14.416;2023-06-22T13:33:29;15.63;;;7.88;;
38358;SDS011;42072;48.044;14.416;2023-06-22T13:35:56;12.02;;;7.47;;
38358;SDS011;42072;48.044;14.416;2023-06-22T13:38:24;13.10;;;7.72;;
38358;SDS011;42072;48.044;14.416;2023-06-22T13:40:51;14.23;;;8.70;;
38358;SDS011;42072;48.044;14.416;2023-06-22T13:43:18;17.40;;;8.45;;
38358;SDS011;42072;48.044;14.416;2023-06-22T13:45:45;20.40;;;8.40;;
38358;SDS011;42072;48.044;14.416;2023-06-22T13:48:12;16.98;;;8.57;;
38358;SDS011;42072;48.044;14.416;2023-06-22T13:50:39;12.45;;;6.88;;
38358;SDS011;42072;48.044;14.416;2023-06-22T13:53:06;15.68;;;9.07;;
38358;SDS011;42072;48.044;14.416;2023-06-22T13:55:33;16.90;;;9.02;;
38358;SDS011;42072;48.044;14.416;2023-06-22T13:58:00;14.45;;;9.32;;
38358;SDS011;42072;48.044;14.416;2023-06-22T14:00:27;16.05;;;8.43;;
38358;SDS011;42072;48.044;14.416;2023-06-22T14:02:55;12.63;;;8.73;;
38358;SDS011;42072;48.044;14.416;2023-06-22T14:05:22;16.38;;;8.82;;
38358;SDS011;42072;48.044;14.416;2023-06-22T14:07:49;13.80;;;8.93;;
38358;SDS011;42072;48.044;14.416;2023-06-22T14:10:16;13.38;;;9.45;;
38358;SDS011;42072;48.044;14.416;2023-06-22T14:12:43;17.10;;;9.02;;
38358;SDS011;42072;48.044;14.416;2023-06-22T14:15:11;18.38;;;9.15;;
38358;SDS011;42072;48.044;14.416;2023-06-22T14:17:38;14.13;;;8.70;;
38358;SDS011;42072;48.044;14.416;2023-06-22T14:20:05;19.75;;;9.82;;
38358;SDS011;42072;48.044;14.416;2023-06-22T14:22:34;18.35;;;8.88;;
38358;SDS011;42072;48.044;14.416;2023-06-22T14:25:02;17.35;;;9.27;;
38358;SDS011;42072;48.044;14.416;2023-06-22T14:27:31;15.73;;;9.52;;
38358;SDS011;42072;48.044;14.416;2023-06-22T14:29:58;17.35;;;8.93;;
38358;SDS011;42072;48.044;14.416;2023-06-22T14:32:27;16.15;;;9.02;;
38358;SDS011;42072;48.044;14.416;2023-06-22T14:34:56;23.70;;;9.38;;
38358;SDS011;42072;48.044;14.416;2023-06-22T14:37:23;17.45;;;9.05;;
38358;SDS011;42072;48.044;14.416;2023-06-22T14:39:50;13.98;;;8.68;;